Time;durP1;ratioP1;P1;durP2;ratioP2;P2;SDS_P1;SDS_P2;PMS_P1;PMS_P2;Temp;Humidity;BMP_temperature;BMP_pressure;BME280_temperature;BME280_humidity;BME280_pressure;Samples;Min_cycle;Max_cycle;Signal;HPM_P1;HPM_P2
2022/01/10 00:00:54;;;;;;;3.92;1.60;;;;;;;;;;4971691;28;20056;-77
2022/01/10 00:03:22;;;;;;;4.00;1.13;;;;;;;;;;4972018;28;20134;-77
2022/01/10 00:05:48;;;;;;;4.75;1.45;;;;;;;;;;4971771;28;20580;-78
2022/01/10 00:08:14;;;;;;;5.28;1.52;;;;;;;;;;4970803;28;20065;-78
2022/01/10 00:10:41;;;;;;;4.07;1.48;;;;;;;;;;4971285;28;20109;-78
2022/01/10 00:13:07;;;;;;;6.20;1.52;;;;;;;;;;4971171;28;20129;-78
2022/01/10 00:15:33;;;;;;;3.47;1.30;;;;;;;;;;4971610;28;20093;-78
2022/01/10 00:18:00;;;;;;;5.38;1.80;;;;;;;;;;4971003;28;20138;-78
2022/01/10 00:20:26;;;;;;;5.07;1.38;;;;;;;;;;4971144;28;20097;-78
2022/01/10 00:22:52;;;;;;;2.65;1.00;;;;;;;;;;4971313;28;20064;-77
2022/01/10 00:25:19;;;;;;;4.45;1.45;;;;;;;;;;4970931;28;20093;-77
2022/01/10 00:27:46;;;;;;;5.38;1.67;;;;;;;;;;4970038;28;20409;-77
2022/01/10 00:30:12;;;;;;;4.43;1.17;;;;;;;;;;4969554;28;20054;-77
2022/01/10 00:32:39;;;;;;;4.45;1.42;;;;;;;;;;4971405;28;20051;-78
2022/01/10 00:35:06;;;;;;;3.45;1.50;;;;;;;;;;4969794;28;20055;-78
2022/01/10 00:37:33;;;;;;;3.90;1.55;;;;;;;;;;4971019;28;20101;-77
2022/01/10 00:39:59;;;;;;;4.38;1.30;;;;;;;;;;4971205;28;20497;-77
2022/01/10 00:42:25;;;;;;;3.95;1.42;;;;;;;;;;4970178;28;20050;-78
2022/01/10 00:44:53;;;;;;;4.63;1.58;;;;;;;;;;4970988;28;20050;-77
2022/01/10 00:47:20;;;;;;;5.28;2.22;;;;;;;;;;4970739;28;20086;-78
2022/01/10 00:49:46;;;;;;;3.72;1.15;;;;;;;;;;4970800;28;20058;-77
2022/01/10 00:52:12;;;;;;;3.63;1.15;;;;;;;;;;4970781;28;20086;-78
2022/01/10 00:54:39;;;;;;;2.97;1.20;;;;;;;;;;4970623;28;20102;-78
2022/01/10 00:57:06;;;;;;;3.83;1.45;;;;;;;;;;4969777;28;20047;-78
2022/01/10 00:59:32;;;;;;;5.70;1.63;;;;;;;;;;4970967;28;20441;-77
2022/01/10 01:01:58;;;;;;;4.40;1.10;;;;;;;;;;4969184;28;20055;-77
2022/01/10 01:04:24;;;;;;;3.83;1.17;;;;;;;;;;4970587;28;20039;-78
2022/01/10 01:06:50;;;;;;;4.05;1.52;;;;;;;;;;4970705;28;20057;-77
2022/01/10 01:09:20;;;;;;;4.60;1.60;;;;;;;;;;4970079;28;20047;-77
2022/01/10 01:14:38;;;;;;;3.15;1.08;;;;;;;;;;4968800;28;20427;-77
2022/01/10 01:17:14;;;;;;;3.40;1.20;;;;;;;;;;4969907;28;20094;-77
2022/01/10 01:25:07;;;;;;;5.05;1.40;;;;;;;;;;4970217;28;20090;-80
2022/01/10 01:27:33;;;;;;;4.15;1.73;;;;;;;;;;4969391;28;20051;-79
2022/01/10 01:30:00;;;;;;;4.15;1.23;;;;;;;;;;4970244;28;20154;-79
2022/01/10 01:32:26;;;;;;;2.45;0.90;;;;;;;;;;4970549;28;20058;-79
2022/01/10 01:34:56;;;;;;;4.35;1.30;;;;;;;;;;4969982;28;20047;-79
2022/01/10 01:37:22;;;;;;;4.30;1.15;;;;;;;;;;4970604;28;20073;-79
2022/01/10 01:39:48;;;;;;;3.92;1.30;;;;;;;;;;4969102;28;20047;-79
2022/01/10 01:42:35;;;;;;;4.90;1.33;;;;;;;;;;4952710;28;20050;-80
2022/01/10 01:45:03;;;;;;;3.08;1.42;;;;;;;;;;4968807;28;20058;-80
2022/01/10 01:47:29;;;;;;;3.70;1.13;;;;;;;;;;4969577;28;20058;-80
2022/01/10 01:49:58;;;;;;;3.70;1.33;;;;;;;;;;4970131;28;20106;-80
2022/01/10 01:52:24;;;;;;;5.60;1.40;;;;;;;;;;4969898;28;20054;-80
2022/01/10 01:54:51;;;;;;;4.72;1.30;;;;;;;;;;4969315;28;20085;-79
2022/01/10 01:57:17;;;;;;;5.38;1.15;;;;;;;;;;4968695;28;20047;-78
2022/01/10 01:59:43;;;;;;;2.95;1.08;;;;;;;;;;4969853;28;20644;-79
2022/01/10 02:02:09;;;;;;;5.38;1.10;;;;;;;;;;4969877;28;20133;-78
2022/01/10 02:04:36;;;;;;;6.10;1.52;;;;;;;;;;4968253;28;20049;-78
2022/01/10 02:07:02;;;;;;;3.30;0.98;;;;;;;;;;4970090;28;20050;-78
2022/01/10 02:09:28;;;;;;;3.83;1.20;;;;;;;;;;4974076;28;20057;-82
2022/01/10 02:11:54;;;;;;;4.28;1.30;;;;;;;;;;4973505;28;20038;-82
2022/01/10 02:14:20;;;;;;;5.82;1.70;;;;;;;;;;4956712;28;20051;-78
2022/01/10 02:16:54;;;;;;;3.45;1.33;;;;;;;;;;4971792;28;20043;-76
2022/01/10 02:19:20;;;;;;;10.43;1.60;;;;;;;;;;4972690;28;20050;-78
2022/01/10 02:21:46;;;;;;;6.13;1.88;;;;;;;;;;4956200;28;20145;-78
2022/01/10 02:24:12;;;;;;;10.00;1.70;;;;;;;;;;4973123;28;20058;-78
2022/01/10 02:26:39;;;;;;;9.15;1.58;;;;;;;;;;4972076;28;20050;-78
2022/01/10 02:29:05;;;;;;;3.47;1.15;;;;;;;;;;4955724;28;20049;-78
2022/01/10 02:31:35;;;;;;;6.13;1.50;;;;;;;;;;4973522;28;20943;-77
2022/01/10 02:34:01;;;;;;;;;;;;;;;;;;4972106;28;20051;-78
2022/01/10 02:36:27;;;;;;;3.78;1.00;;;;;;;;;;4972802;28;20300;-77
2022/01/10 02:38:54;;;;;;;4.10;1.15;;;;;;;;;;4973400;28;20050;-78
2022/01/10 02:41:21;;;;;;;13.80;2.40;;;;;;;;;;4973021;28;20150;-78
2022/01/10 02:43:47;;;;;;;3.83;1.20;;;;;;;;;;4972894;28;20046;-78
2022/01/10 02:46:13;;;;;;;4.55;1.38;;;;;;;;;;4972678;28;20547;-78
2022/01/10 02:48:40;;;;;;;5.20;1.20;;;;;;;;;;4972703;28;20046;-78
2022/01/10 02:51:06;;;;;;;6.50;1.40;;;;;;;;;;4970834;28;20055;-78
2022/01/10 02:53:32;;;;;;;4.65;1.38;;;;;;;;;;4972623;28;20568;-78
2022/01/10 02:55:58;;;;;;;3.63;1.45;;;;;;;;;;4972432;28;20587;-78
2022/01/10 02:58:24;;;;;;;3.70;0.82;;;;;;;;;;4972915;28;20042;-78
2022/01/10 03:00:50;;;;;;;3.80;1.17;;;;;;;;;;4972924;28;20106;-78
2022/01/10 03:03:16;;;;;;;2.60;1.10;;;;;;;;;;4971372;28;20776;-78
2022/01/10 03:05:42;;;;;;;8.45;1.90;;;;;;;;;;4973097;28;20053;-78
2022/01/10 03:08:08;;;;;;;5.65;1.20;;;;;;;;;;4972096;28;20139;-78
2022/01/10 03:10:34;;;;;;;2.90;1.05;;;;;;;;;;4972780;28;20138;-78
2022/01/10 03:13:01;;;;;;;3.30;1.15;;;;;;;;;;4972381;28;20058;-78
2022/01/10 03:15:28;;;;;;;3.63;1.20;;;;;;;;;;4972183;28;20070;-78
2022/01/10 03:17:54;;;;;;;4.85;1.17;;;;;;;;;;4972484;28;20437;-78
2022/01/10 03:20:23;;;;;;;5.00;1.70;;;;;;;;;;4971438;28;20055;-77
2022/01/10 03:22:49;;;;;;;3.15;0.88;;;;;;;;;;4972711;28;20089;-78
2022/01/10 03:25:15;;;;;;;4.45;1.13;;;;;;;;;;4972055;28;20101;-78
2022/01/10 03:27:41;;;;;;;5.20;1.38;;;;;;;;;;4970991;28;20046;-77
2022/01/10 03:30:07;;;;;;;2.13;1.02;;;;;;;;;;4971784;28;20046;-77
2022/01/10 03:32:33;;;;;;;3.08;1.30;;;;;;;;;;4972292;28;20416;-77
2022/01/10 03:34:59;;;;;;;4.30;1.10;;;;;;;;;;4972045;28;20043;-77
2022/01/10 03:37:26;;;;;;;2.30;1.00;;;;;;;;;;4972029;28;20211;-77
2022/01/10 03:39:52;;;;;;;2.92;1.02;;;;;;;;;;4954815;28;20050;-77
2022/01/10 03:42:18;;;;;;;2.13;0.85;;;;;;;;;;4971805;28;20049;-77
2022/01/10 03:44:44;;;;;;;2.75;1.23;;;;;;;;;;4972298;28;20051;-77
2022/01/10 03:47:10;;;;;;;3.08;1.33;;;;;;;;;;4971559;28;20062;-77
2022/01/10 03:49:37;;;;;;;3.03;1.00;;;;;;;;;;4971877;28;20130;-77
2022/01/10 03:52:03;;;;;;;4.38;1.38;;;;;;;;;;4970506;28;20485;-77
2022/01/10 03:54:29;;;;;;;3.05;0.82;;;;;;;;;;4970838;28;20401;-77
2022/01/10 03:56:55;;;;;;;3.97;1.30;;;;;;;;;;4971608;28;20393;-77
2022/01/10 03:59:21;;;;;;;3.60;0.90;;;;;;;;;;4971142;28;20365;-77
2022/01/10 04:01:50;;;;;;;2.92;1.00;;;;;;;;;;4971228;28;20739;-77
2022/01/10 04:04:17;;;;;;;3.70;1.10;;;;;;;;;;4971674;28;20047;-77
2022/01/10 04:06:43;;;;;;;4.75;1.27;;;;;;;;;;4970116;28;20059;-77
2022/01/10 04:09:09;;;;;;;4.25;1.42;;;;;;;;;;4971389;28;20382;-78
2022/01/10 04:11:36;;;;;;;3.00;1.02;;;;;;;;;;4971755;28;20050;-78
2022/01/10 04:14:02;;;;;;;3.40;1.10;;;;;;;;;;4969190;28;20053;-79
2022/01/10 04:16:28;;;;;;;4.57;1.10;;;;;;;;;;4954518;28;20057;-79
2022/01/10 04:18:54;;;;;;;4.95;1.10;;;;;;;;;;4971394;28;20062;-78
2022/01/10 04:21:20;;;;;;;3.83;1.00;;;;;;;;;;4970300;28;20055;-77
2022/01/10 04:23:46;;;;;;;5.53;1.40;;;;;;;;;;4971113;28;20047;-78
2022/01/10 04:26:12;;;;;;;7.05;1.27;;;;;;;;;;4970648;28;20053;-77
2022/01/10 04:28:38;;;;;;;3.78;0.93;;;;;;;;;;4971555;28;20464;-78
2022/01/10 04:31:04;;;;;;;4.15;1.25;;;;;;;;;;4969409;28;20046;-77
2022/01/10 04:33:31;;;;;;;2.45;0.98;;;;;;;;;;4971458;28;20134;-78
2022/01/10 04:35:57;;;;;;;2.58;0.90;;;;;;;;;;4969574;28;20050;-77
2022/01/10 04:38:24;;;;;;;3.63;1.45;;;;;;;;;;4969840;28;20073;-77
2022/01/10 04:40:50;;;;;;;2.92;1.13;;;;;;;;;;4970728;28;20054;-78
2022/01/10 04:43:16;;;;;;;3.90;1.23;;;;;;;;;;4970231;28;20047;-77
2022/01/10 04:45:42;;;;;;;12.88;1.20;;;;;;;;;;4969426;28;20514;-76
2022/01/10 04:48:09;;;;;;;2.97;0.90;;;;;;;;;;4951105;28;20055;-76
2022/01/10 04:53:04;;;;;;;4.03;1.23;;;;;;;;;;4951555;28;20051;-77
2022/01/10 04:55:30;;;;;;;3.38;1.00;;;;;;;;;;4951339;28;20581;-77
2022/01/10 04:57:56;;;;;;;2.40;0.85;;;;;;;;;;4968134;28;20093;-77
2022/01/10 05:00:22;;;;;;;4.45;1.10;;;;;;;;;;4970366;28;20043;-77
2022/01/10 05:02:49;;;;;;;2.67;1.02;;;;;;;;;;4969174;28;20082;-77
2022/01/10 05:05:15;;;;;;;3.67;1.30;;;;;;;;;;4969386;28;20057;-77
2022/01/10 05:07:41;;;;;;;3.22;1.10;;;;;;;;;;4968987;28;20774;-77
2022/01/10 05:10:08;;;;;;;3.63;0.98;;;;;;;;;;4970247;28;20046;-77
2022/01/10 05:12:34;;;;;;;4.15;1.27;;;;;;;;;;4970248;28;20043;-77
2022/01/10 05:15:00;;;;;;;5.07;0.95;;;;;;;;;;4968867;28;20055;-77
2022/01/10 05:17:26;;;;;;;4.65;2.08;;;;;;;;;;4970622;28;20138;-79
2022/01/10 05:19:52;;;;;;;4.13;1.20;;;;;;;;;;4953066;28;20046;-79
2022/01/10 05:22:18;;;;;;;3.47;1.00;;;;;;;;;;4968523;28;20046;-80
2022/01/10 05:24:44;;;;;;;4.45;1.05;;;;;;;;;;4969306;28;20173;-80
2022/01/10 05:27:10;;;;;;;3.60;1.20;;;;;;;;;;4969925;28;20082;-80
2022/01/10 05:29:36;;;;;;;3.70;1.10;;;;;;;;;;4970611;28;20543;-80
2022/01/10 05:32:02;;;;;;;3.03;1.00;;;;;;;;;;4953015;28;20062;-80
2022/01/10 05:34:30;;;;;;;4.60;0.88;;;;;;;;;;4969985;28;20409;-79
2022/01/10 05:36:56;;;;;;;3.35;0.93;;;;;;;;;;4969042;28;20058;-79
2022/01/10 05:39:22;;;;;;;2.70;1.00;;;;;;;;;;4969905;28;20124;-80
2022/01/10 05:41:48;;;;;;;13.13;1.67;;;;;;;;;;4968555;28;20409;-79
2022/01/10 05:44:14;;;;;;;6.63;1.30;;;;;;;;;;4969635;28;20046;-78
2022/01/10 05:46:43;;;;;;;6.55;1.00;;;;;;;;;;4969360;28;20059;-77
2022/01/10 05:49:12;;;;;;;6.82;1.05;;;;;;;;;;4970111;28;20137;-77
2022/01/10 05:51:38;;;;;;;8.40;2.00;;;;;;;;;;4969549;28;20051;-77
2022/01/10 05:54:05;;;;;;;5.15;1.17;;;;;;;;;;4971059;28;20043;-77
2022/01/10 05:56:32;;;;;;;3.10;1.05;;;;;;;;;;4969718;28;20043;-77
2022/01/10 05:58:59;;;;;;;3.22;0.98;;;;;;;;;;4969568;28;20066;-77
2022/01/10 06:01:25;;;;;;;2.08;0.93;;;;;;;;;;4970216;28;20043;-78
2022/01/10 06:03:52;;;;;;;3.78;1.02;;;;;;;;;;4969840;28;20047;-78
2022/01/10 06:06:18;;;;;;;3.70;1.10;;;;;;;;;;4969365;28;20122;-78
2022/01/10 06:08:44;;;;;;;7.43;1.00;;;;;;;;;;4969770;28;20094;-78
2022/01/10 06:11:10;;;;;;;4.40;0.85;;;;;;;;;;4969595;28;20054;-77
2022/01/10 06:13:36;;;;;;;4.82;1.75;;;;;;;;;;4969909;28;20161;-78
2022/01/10 06:16:03;;;;;;;3.60;1.15;;;;;;;;;;4969060;28;20035;-78
2022/01/10 06:18:29;;;;;;;2.65;0.90;;;;;;;;;;4968505;28;20089;-78
2022/01/10 06:20:55;;;;;;;2.78;0.88;;;;;;;;;;4969556;28;20097;-78
2022/01/10 06:23:21;;;;;;;2.08;0.85;;;;;;;;;;4969551;28;20042;-78
2022/01/10 06:25:47;;;;;;;3.13;1.00;;;;;;;;;;4969870;28;20059;-78
2022/01/10 06:28:15;;;;;;;4.88;0.95;;;;;;;;;;4969155;28;20043;-78
2022/01/10 06:30:41;;;;;;;4.13;1.38;;;;;;;;;;4969559;28;20476;-78
2022/01/10 06:33:07;;;;;;;3.80;1.00;;;;;;;;;;4970463;28;20043;-79
2022/01/10 06:35:33;;;;;;;3.50;1.00;;;;;;;;;;4988303;28;20061;-79
2022/01/10 06:37:59;;;;;;;4.57;1.38;;;;;;;;;;4985588;28;20047;-79
2022/01/10 06:40:26;;;;;;;2.67;0.80;;;;;;;;;;4989154;28;20420;-78
2022/01/10 06:42:52;;;;;;;2.13;0.95;;;;;;;;;;4971547;28;20456;-78
2022/01/10 06:45:18;;;;;;;4.53;0.90;;;;;;;;;;4968931;28;20422;-79
2022/01/10 06:47:44;;;;;;;3.55;1.23;;;;;;;;;;4969005;28;20059;-77
2022/01/10 06:50:10;;;;;;;3.67;1.33;;;;;;;;;;4969253;28;20065;-77
2022/01/10 06:52:36;;;;;;;2.60;0.93;;;;;;;;;;4969785;28;20047;-78
2022/01/10 06:55:03;;;;;;;2.75;1.00;;;;;;;;;;4972460;28;20460;-78
2022/01/10 06:57:29;;;;;;;2.42;0.93;;;;;;;;;;4972231;28;20050;-78
2022/01/10 06:59:55;;;;;;;2.22;0.90;;;;;;;;;;4973076;28;20050;-78
2022/01/10 07:02:21;;;;;;;1.85;0.80;;;;;;;;;;4972330;28;20046;-77
2022/01/10 07:04:47;;;;;;;3.08;0.90;;;;;;;;;;4972864;28;20043;-78
2022/01/10 07:07:13;;;;;;;2.65;1.10;;;;;;;;;;4964357;28;20536;-78
2022/01/10 07:09:39;;;;;;;6.53;1.13;;;;;;;;;;4971440;28;20113;-80
2022/01/10 07:12:06;;;;;;;4.63;1.13;;;;;;;;;;4955042;28;20523;-80
2022/01/10 07:14:34;;;;;;;4.38;1.15;;;;;;;;;;4972844;28;20059;-80
2022/01/10 07:17:00;;;;;;;5.07;0.98;;;;;;;;;;4972290;28;20046;-79
2022/01/10 07:19:26;;;;;;;3.70;1.15;;;;;;;;;;4973180;28;20039;-80
2022/01/10 07:21:52;;;;;;;5.15;1.48;;;;;;;;;;4986556;28;20174;-80
2022/01/10 07:24:18;;;;;;;6.55;1.10;;;;;;;;;;4992768;28;20651;-80
2022/01/10 07:26:45;;;;;;;3.20;1.05;;;;;;;;;;4982441;28;20057;-80
2022/01/10 07:29:12;;;;;;;4.28;0.90;;;;;;;;;;4973690;28;20050;-80
2022/01/10 07:31:38;;;;;;;2.45;1.00;;;;;;;;;;4973522;28;20051;-79
2022/01/10 07:34:05;;;;;;;4.55;1.40;;;;;;;;;;4973416;28;20131;-80
2022/01/10 07:36:31;;;;;;;4.63;1.60;;;;;;;;;;4976135;28;20324;-80
2022/01/10 07:38:57;;;;;;;3.90;1.20;;;;;;;;;;4975397;28;20130;-80
2022/01/10 07:41:23;;;;;;;4.45;1.00;;;;;;;;;;4975299;28;20062;-80
2022/01/10 07:43:50;;;;;;;2.72;0.93;;;;;;;;;;4973953;28;20053;-79
2022/01/10 07:46:17;;;;;;;3.00;0.93;;;;;;;;;;4970461;28;20697;-81
2022/01/10 07:48:44;;;;;;;2.63;0.80;;;;;;;;;;4971315;28;20045;-80
2022/01/10 07:51:11;;;;;;;3.83;1.00;;;;;;;;;;4972270;28;20062;-80
2022/01/10 07:53:38;;;;;;;3.10;1.02;;;;;;;;;;4971937;28;20049;-78
2022/01/10 07:56:05;;;;;;;2.42;0.90;;;;;;;;;;4970832;28;20054;-81
2022/01/10 07:58:32;;;;;;;5.20;0.90;;;;;;;;;;4971743;28;20043;-79
2022/01/10 08:00:58;;;;;;;2.42;1.00;;;;;;;;;;4971381;28;20042;-80
2022/01/10 08:03:27;;;;;;;2.72;1.10;;;;;;;;;;4971568;28;20405;-80
2022/01/10 08:05:53;;;;;;;3.50;1.10;;;;;;;;;;4954392;28;20058;-79
2022/01/10 08:08:20;;;;;;;2.83;1.10;;;;;;;;;;4971350;28;20425;-80
2022/01/10 08:10:46;;;;;;;4.05;1.70;;;;;;;;;;4971010;28;20043;-79
2022/01/10 08:13:13;;;;;;;2.67;0.80;;;;;;;;;;4953978;28;20583;-79
2022/01/10 08:15:42;;;;;;;3.97;0.98;;;;;;;;;;4972041;28;20046;-79
2022/01/10 08:18:09;;;;;;;2.78;0.88;;;;;;;;;;4969909;28;20043;-79
2022/01/10 08:20:35;;;;;;;3.05;0.80;;;;;;;;;;4971511;28;20042;-79
2022/01/10 08:23:01;;;;;;;2.60;0.95;;;;;;;;;;4969846;28;20043;-79
2022/01/10 08:25:27;;;;;;;2.25;0.85;;;;;;;;;;4971698;28;20129;-80
2022/01/10 08:27:53;;;;;;;2.85;0.70;;;;;;;;;;4954429;28;20252;-81
2022/01/10 08:30:19;;;;;;;3.28;1.00;;;;;;;;;;4971482;28;20291;-80
2022/01/10 08:32:50;;;;;;;3.13;0.90;;;;;;;;;;4971278;28;20074;-78
2022/01/10 08:35:16;;;;;;;2.05;0.80;;;;;;;;;;4971048;28;20082;-79
2022/01/10 08:37:42;;;;;;;3.28;1.00;;;;;;;;;;4969847;28;20057;-79
2022/01/10 08:40:08;;;;;;;2.42;0.90;;;;;;;;;;4953951;28;20134;-79
2022/01/10 08:42:34;;;;;;;4.05;0.98;;;;;;;;;;4970989;28;20122;-80
2022/01/10 08:45:00;;;;;;;2.88;0.85;;;;;;;;;;4971089;28;20049;-79
2022/01/10 08:47:27;;;;;;;2.65;1.08;;;;;;;;;;4970598;28;20139;-79
2022/01/10 08:49:53;;;;;;;2.25;1.13;;;;;;;;;;4970774;28;20101;-79
2022/01/10 08:52:19;;;;;;;2.47;0.93;;;;;;;;;;4971066;28;20050;-79
2022/01/10 08:54:48;;;;;;;4.25;1.15;;;;;;;;;;4971242;28;20089;-79
2022/01/10 08:57:14;;;;;;;5.72;1.40;;;;;;;;;;4971181;28;20050;-78
2022/01/10 08:59:41;;;;;;;3.83;1.30;;;;;;;;;;4970721;28;20046;-78
2022/01/10 09:02:08;;;;;;;4.20;1.20;;;;;;;;;;4970509;28;20113;-77
2022/01/10 09:04:34;;;;;;;4.55;1.30;;;;;;;;;;4969489;28;20101;-77
2022/01/10 09:07:02;;;;;;;7.82;1.40;;;;;;;;;;4970619;28;20130;-76
2022/01/10 09:09:28;;;;;;;3.45;1.20;;;;;;;;;;4970559;28;20051;-78
2022/01/10 09:11:54;;;;;;;3.65;1.20;;;;;;;;;;4970579;28;20055;-79
2022/01/10 09:14:21;;;;;;;4.68;1.60;;;;;;;;;;4968707;28;20058;-80
2022/01/10 09:16:47;;;;;;;4.13;1.42;;;;;;;;;;4970247;28;20133;-75
2022/01/10 09:19:13;;;;;;;4.43;1.50;;;;;;;;;;4969380;28;20050;-78
2022/01/10 09:21:39;;;;;;;4.25;1.65;;;;;;;;;;4970546;28;20050;-79
2022/01/10 09:24:06;;;;;;;2.95;1.58;;;;;;;;;;4969085;28;20556;-78
2022/01/10 09:26:32;;;;;;;2.85;1.42;;;;;;;;;;4969307;28;20066;-76
2022/01/10 09:28:59;;;;;;;4.60;1.40;;;;;;;;;;4968090;28;20057;-75
2022/01/10 09:31:25;;;;;;;3.50;1.25;;;;;;;;;;4970495;28;20105;-78
2022/01/10 09:33:54;;;;;;;4.80;2.00;;;;;;;;;;4953131;28;20495;-79
2022/01/10 09:36:22;;;;;;;3.50;1.42;;;;;;;;;;4969763;28;20043;-77
2022/01/10 09:38:48;;;;;;;4.15;1.73;;;;;;;;;;4970158;28;20073;-74
2022/01/10 09:41:14;;;;;;;4.75;1.63;;;;;;;;;;4970111;28;20113;-75
2022/01/10 09:43:42;;;;;;;4.35;1.67;;;;;;;;;;4969551;28;20460;-77
2022/01/10 09:46:08;;;;;;;4.07;1.45;;;;;;;;;;4968034;28;20054;-82
2022/01/10 09:48:35;;;;;;;3.70;1.38;;;;;;;;;;4979574;28;20050;-77
2022/01/10 09:51:01;;;;;;;4.45;1.88;;;;;;;;;;4990880;28;20042;-76
2022/01/10 09:53:27;;;;;;;3.95;1.70;;;;;;;;;;4983237;28;20050;-76
2022/01/10 09:55:53;;;;;;;3.78;1.50;;;;;;;;;;4971637;28;20074;-75
2022/01/10 09:58:19;;;;;;;2.78;1.42;;;;;;;;;;4970091;28;20085;-78
2022/01/10 10:00:48;;;;;;;4.15;1.98;;;;;;;;;;4971087;28;20050;-76
2022/01/10 10:03:20;;;;;;;4.63;1.55;;;;;;;;;;4973312;28;20043;-77
2022/01/10 10:05:46;;;;;;;4.68;1.83;;;;;;;;;;4972158;28;20047;-76
2022/01/10 10:08:12;;;;;;;4.88;2.17;;;;;;;;;;4975005;28;20085;-75
2022/01/10 10:10:39;;;;;;;5.47;1.60;;;;;;;;;;4972363;28;20043;-79
2022/01/10 10:13:05;;;;;;;3.42;1.60;;;;;;;;;;4970527;28;20054;-81
2022/01/10 10:15:32;;;;;;;4.53;1.63;;;;;;;;;;4970441;28;20421;-81
2022/01/10 10:17:59;;;;;;;4.07;1.70;;;;;;;;;;4970163;28;20043;-81
2022/01/10 10:20:25;;;;;;;6.05;1.63;;;;;;;;;;4969198;28;20137;-80
2022/01/10 10:22:53;;;;;;;3.67;1.50;;;;;;;;;;4969769;28;20058;-80
2022/01/10 10:25:20;;;;;;;3.57;1.67;;;;;;;;;;4969429;28;20063;-80
2022/01/10 10:27:47;;;;;;;5.28;1.90;;;;;;;;;;4970013;28;20550;-79
2022/01/10 10:30:15;;;;;;;7.18;2.67;;;;;;;;;;4975192;28;20045;-80
2022/01/10 10:32:41;;;;;;;6.60;3.17;;;;;;;;;;4973486;28;20047;-77
2022/01/10 10:35:08;;;;;;;7.15;3.30;;;;;;;;;;4973495;28;20406;-76
2022/01/10 10:37:38;;;;;;;7.93;3.58;;;;;;;;;;4972185;28;20540;-79
2022/01/10 10:40:07;;;;;;;7.25;3.63;;;;;;;;;;4956019;28;20610;-78
2022/01/10 10:42:33;;;;;;;6.22;3.20;;;;;;;;;;4973162;28;20051;-78
2022/01/10 10:45:02;;;;;;;6.45;3.28;;;;;;;;;;4971872;28;20054;-79
2022/01/10 10:47:29;;;;;;;7.03;3.20;;;;;;;;;;4954898;28;20189;-81
2022/01/10 10:49:59;;;;;;;5.72;3.08;;;;;;;;;;4991264;28;20050;-77
2022/01/10 10:52:30;;;;;;;7.85;3.03;;;;;;;;;;4982558;28;20054;-81
2022/01/10 10:55:07;;;;;;;6.05;3.10;;;;;;;;;;4957687;28;20050;-79
2022/01/10 10:57:33;;;;;;;6.35;3.25;;;;;;;;;;4972522;28;20068;-80
2022/01/10 11:00:00;;;;;;;7.30;3.22;;;;;;;;;;4972501;28;20042;-80
2022/01/10 11:02:26;;;;;;;5.72;3.13;;;;;;;;;;4953104;29;20058;-80
2022/01/10 11:04:52;;;;;;;6.13;3.22;;;;;;;;;;4968464;28;20054;-77
2022/01/10 11:07:22;;;;;;;5.95;3.00;;;;;;;;;;4965442;28;20047;-77
2022/01/10 11:09:49;;;;;;;6.13;3.10;;;;;;;;;;4974699;28;20125;-77
2022/01/10 11:12:17;;;;;;;6.03;3.13;;;;;;;;;;4991917;28;20121;-76
2022/01/10 11:14:43;;;;;;;5.30;2.70;;;;;;;;;;4981731;28;20101;-73
2022/01/10 11:17:16;;;;;;;6.60;2.92;;;;;;;;;;4975746;28;20046;-77
2022/01/10 11:19:42;;;;;;;5.90;3.25;;;;;;;;;;4971430;28;20051;-77
2022/01/10 11:22:09;;;;;;;5.57;2.97;;;;;;;;;;4971742;28;20762;-79
2022/01/10 11:24:42;;;;;;;6.57;3.45;;;;;;;;;;4970968;28;20138;-78
2022/01/10 11:27:09;;;;;;;5.80;2.90;;;;;;;;;;4972287;28;20054;-75
2022/01/10 11:29:42;;;;;;;5.20;2.80;;;;;;;;;;4972838;28;20047;-76
2022/01/10 11:32:08;;;;;;;6.90;3.00;;;;;;;;;;4970267;28;20054;-76
2022/01/10 11:34:34;;;;;;;6.55;3.20;;;;;;;;;;4972545;28;20074;-79
2022/01/10 11:37:03;;;;;;;5.80;2.92;;;;;;;;;;4971328;28;20062;-76
2022/01/10 11:39:36;;;;;;;6.40;2.95;;;;;;;;;;4971743;28;20166;-74
2022/01/10 11:42:19;;;;;;;4.90;2.55;;;;;;;;;;4972116;28;20046;-75
2022/01/10 11:45:03;;;;;;;5.43;2.70;;;;;;;;;;4951536;28;20047;-76
2022/01/10 11:47:29;;;;;;;6.90;2.95;;;;;;;;;;4952575;28;20529;-76
2022/01/10 11:50:14;;;;;;;7.60;2.90;;;;;;;;;;4976043;28;20574;-75
2022/01/10 11:52:41;;;;;;;5.35;3.08;;;;;;;;;;4990806;28;20050;-77
2022/01/10 11:55:08;;;;;;;6.40;3.30;;;;;;;;;;4991169;28;20046;-75
2022/01/10 11:57:35;;;;;;;5.72;2.60;;;;;;;;;;4991331;28;20089;-74
2022/01/10 12:00:09;;;;;;;5.72;2.85;;;;;;;;;;4984987;28;20054;-76
2022/01/10 12:02:36;;;;;;;6.75;2.72;;;;;;;;;;4971549;28;20125;-74
2022/01/10 12:05:02;;;;;;;5.13;2.40;;;;;;;;;;4977034;28;20539;-73
2022/01/10 12:07:28;;;;;;;8.32;2.78;;;;;;;;;;4991266;28;20046;-74
2022/01/10 12:09:54;;;;;;;6.82;3.15;;;;;;;;;;4990969;28;20045;-75
2022/01/10 12:12:21;;;;;;;8.82;3.55;;;;;;;;;;4990853;28;20042;-75
2022/01/10 12:14:48;;;;;;;7.10;2.63;;;;;;;;;;4975140;28;20051;-75
2022/01/10 12:17:14;;;;;;;6.78;3.13;;;;;;;;;;4970617;28;20074;-77
2022/01/10 12:19:41;;;;;;;5.93;2.83;;;;;;;;;;4971828;28;20050;-77
2022/01/10 12:22:07;;;;;;;5.60;3.00;;;;;;;;;;4971774;28;20402;-76
2022/01/10 12:24:35;;;;;;;5.50;2.80;;;;;;;;;;4980248;28;20057;-78
2022/01/10 12:27:02;;;;;;;6.53;2.78;;;;;;;;;;4971368;28;20093;-76
2022/01/10 12:29:29;;;;;;;5.65;2.55;;;;;;;;;;4970631;28;20074;-76
2022/01/10 12:31:56;;;;;;;3.20;2.08;;;;;;;;;;4971162;28;20117;-76
2022/01/10 12:34:22;;;;;;;5.85;2.78;;;;;;;;;;4971672;28;20105;-77
2022/01/10 12:36:48;;;;;;;5.53;2.50;;;;;;;;;;4970926;28;20042;-77
2022/01/10 12:39:23;;;;;;;7.75;2.50;;;;;;;;;;4969723;28;20046;-78
2022/01/10 12:41:50;;;;;;;5.65;2.60;;;;;;;;;;4971192;28;20047;-75
2022/01/10 12:44:17;;;;;;;6.55;2.72;;;;;;;;;;4970546;28;20112;-75
2022/01/10 12:46:43;;;;;;;6.45;2.42;;;;;;;;;;4970661;28;20057;-76
2022/01/10 12:49:10;;;;;;;5.65;2.47;;;;;;;;;;4970616;28;20062;-78
2022/01/10 12:51:38;;;;;;;7.97;3.00;;;;;;;;;;4968887;28;20062;-79
2022/01/10 12:54:06;;;;;;;4.53;2.40;;;;;;;;;;4970458;28;20416;-78
2022/01/10 12:56:33;;;;;;;4.05;2.47;;;;;;;;;;4971036;28;20072;-77
2022/01/10 12:59:00;;;;;;;6.07;2.63;;;;;;;;;;4969341;28;20127;-77
2022/01/10 13:01:26;;;;;;;6.15;2.55;;;;;;;;;;4969111;28;20046;-76
2022/01/10 13:03:59;;;;;;;4.32;2.63;;;;;;;;;;4970747;28;20042;-76
2022/01/10 13:06:26;;;;;;;5.38;2.72;;;;;;;;;;4969255;28;20054;-75
2022/01/10 13:08:56;;;;;;;7.80;2.40;;;;;;;;;;4970482;28;20300;-80
2022/01/10 13:11:29;;;;;;;9.02;2.72;;;;;;;;;;4969007;28;20047;-80
2022/01/10 13:14:05;;;;;;;8.13;2.28;;;;;;;;;;4969744;28;20053;-79
2022/01/10 13:16:32;;;;;;;11.32;2.45;;;;;;;;;;4970809;28;20085;-78
2022/01/10 13:19:03;;;;;;;6.93;2.22;;;;;;;;;;4970674;28;20497;-77
2022/01/10 13:21:31;;;;;;;5.22;1.92;;;;;;;;;;4970703;28;20054;-79
2022/01/10 13:24:33;;;;;;;6.25;2.38;;;;;;;;;;4969215;28;20520;-79
2022/01/10 13:27:04;;;;;;;4.15;1.90;;;;;;;;;;4932618;28;20956;-78
2022/01/10 13:29:33;;;;;;;5.35;2.45;;;;;;;;;;4962426;28;20055;-78
2022/01/10 13:32:12;;;;;;;5.97;2.20;;;;;;;;;;4970193;28;20093;-77
2022/01/10 13:34:38;;;;;;;5.28;2.00;;;;;;;;;;4970257;28;20042;-79
2022/01/10 13:37:04;;;;;;;6.28;2.50;;;;;;;;;;4970190;28;20043;-78
2022/01/10 13:39:30;;;;;;;4.60;2.20;;;;;;;;;;4970911;28;20043;-77
2022/01/10 13:41:58;;;;;;;5.72;2.30;;;;;;;;;;4970088;28;20089;-77
2022/01/10 13:44:24;;;;;;;5.78;2.03;;;;;;;;;;4969844;28;20100;-77
2022/01/10 13:46:59;;;;;;;6.20;1.98;;;;;;;;;;4970070;28;20505;-77
2022/01/10 13:49:26;;;;;;;5.53;2.00;;;;;;;;;;4970361;28;20457;-76
2022/01/10 13:52:07;;;;;;;6.03;2.40;;;;;;;;;;4970393;28;20102;-77
2022/01/10 13:54:33;;;;;;;6.05;2.47;;;;;;;;;;4969708;28;20149;-77
2022/01/10 13:57:13;;;;;;;5.22;2.10;;;;;;;;;;4969886;28;20043;-78
2022/01/10 13:59:39;;;;;;;3.95;1.73;;;;;;;;;;4970063;28;20047;-79
2022/01/10 14:02:05;;;;;;;4.85;1.90;;;;;;;;;;4969981;28;20047;-78
2022/01/10 14:04:34;;;;;;;4.97;2.17;;;;;;;;;;4971431;28;20047;-80
2022/01/10 14:07:07;;;;;;;3.55;1.73;;;;;;;;;;4975071;28;20425;-79
2022/01/10 14:09:34;;;;;;;4.10;2.13;;;;;;;;;;4974971;28;20045;-82
2022/01/10 14:12:02;;;;;;;4.25;2.20;;;;;;;;;;4973367;28;20126;-78
2022/01/10 14:14:29;;;;;;;4.57;2.10;;;;;;;;;;4972603;28;20038;-82
2022/01/10 14:16:55;;;;;;;5.43;2.25;;;;;;;;;;4971672;28;20425;-82
2022/01/10 14:19:22;;;;;;;6.18;2.33;;;;;;;;;;4973403;28;20378;-84
2022/01/10 14:21:48;;;;;;;4.40;1.67;;;;;;;;;;4971281;28;20046;-79
2022/01/10 14:24:17;;;;;;;4.63;2.15;;;;;;;;;;4971794;28;20046;-75
2022/01/10 14:26:43;;;;;;;;;;;;;;;;;;4973061;28;20042;-78
2022/01/10 14:29:13;;;;;;;5.95;2.35;;;;;;;;;;4971205;28;19949;-77
2022/01/10 14:31:39;;;;;;;8.48;2.35;;;;;;;;;;4971946;28;20051;-76
2022/01/10 14:34:05;;;;;;;7.50;2.60;;;;;;;;;;4971539;28;20049;-78
2022/01/10 14:36:32;;;;;;;4.90;2.22;;;;;;;;;;4966489;28;20400;-76
2022/01/10 14:38:58;;;;;;;6.53;2.03;;;;;;;;;;4970674;28;20043;-77
2022/01/10 14:41:26;;;;;;;8.00;2.20;;;;;;;;;;4970980;28;20077;-77
2022/01/10 14:43:52;;;;;;;6.38;2.50;;;;;;;;;;4971347;28;20054;-78
2022/01/10 14:46:18;;;;;;;7.65;2.10;;;;;;;;;;4969755;28;20078;-77
2022/01/10 14:48:45;;;;;;;6.88;2.10;;;;;;;;;;4974445;28;20083;-77
2022/01/10 14:51:11;;;;;;;5.78;2.20;;;;;;;;;;4969624;28;20104;-75
2022/01/10 14:53:38;;;;;;;4.80;2.17;;;;;;;;;;4971482;28;20167;-75